sensor_id;sensor_type;location;lat;lon;timestamp;P1;durP1;ratioP1;P2;durP2;ratioP2
43419;SDS011;29017;51.514;-0.178;2023-05-27T00:00:16;17.10;;;1.90;;
43419;SDS011;29017;51.514;-0.178;2023-05-27T00:02:44;18.20;;;2.40;;
43419;SDS011;29017;51.514;-0.178;2023-05-27T00:05:11;18.33;;;1.95;;
43419;SDS011;29017;51.514;-0.178;2023-05-27T00:07:38;17.85;;;2.22;;
43419;SDS011;29017;51.514;-0.178;2023-05-27T00:10:06;16.08;;;2.30;;
43419;SDS011;29017;51.514;-0.178;2023-05-27T00:12:33;17.77;;;2.00;;
43419;SDS011;29017;51.514;-0.178;2023-05-27T00:15:00;17.67;;;2.05;;
43419;SDS011;29017;51.514;-0.178;2023-05-27T00:17:27;16.65;;;1.80;;
43419;SDS011;29017;51.514;-0.178;2023-05-27T00:19:54;17.58;;;2.53;;
43419;SDS011;29017;51.514;-0.178;2023-05-27T00:22:22;20.40;;;2.38;;
43419;SDS011;29017;51.514;-0.178;2023-05-27T00:24:49;12.63;;;2.45;;
43419;SDS011;29017;51.514;-0.178;2023-05-27T00:27:16;19.33;;;2.25;;
43419;SDS011;29017;51.514;-0.178;2023-05-27T00:29:43;15.80;;;2.35;;
43419;SDS011;29017;51.514;-0.178;2023-05-27T00:32:10;16.48;;;2.00;;
43419;SDS011;29017;51.514;-0.178;2023-05-27T00:34:38;16.85;;;1.58;;
43419;SDS011;29017;51.514;-0.178;2023-05-27T00:37:04;20.08;;;1.95;;
43419;SDS011;29017;51.514;-0.178;2023-05-27T00:39:32;20.15;;;2.85;;
43419;SDS011;29017;51.514;-0.178;2023-05-27T00:41:59;16.27;;;2.17;;
43419;SDS011;29017;51.514;-0.178;2023-05-27T00:44:30;23.65;;;2.42;;
43419;SDS011;29017;51.514;-0.178;2023-05-27T00:46:58;15.82;;;1.92;;
43419;SDS011;29017;51.514;-0.178;2023-05-27T00:49:25;19.30;;;2.00;;
43419;SDS011;29017;51.514;-0.178;2023-05-27T00:51:53;16.73;;;1.88;;
43419;SDS011;29017;51.514;-0.178;2023-05-27T00:54:20;14.00;;;1.75;;
43419;SDS011;29017;51.514;-0.178;2023-05-27T00:56:47;23.27;;;2.90;;
43419;SDS011;29017;51.514;-0.178;2023-05-27T00:59:15;19.23;;;2.58;;
43419;SDS011;29017;51.514;-0.178;2023-05-27T01:01:42;14.00;;;2.47;;
43419;SDS011;29017;51.514;-0.178;2023-05-27T01:04:10;21.13;;;2.05;;
43419;SDS011;29017;51.514;-0.178;2023-05-27T01:14:35;16.48;;;1.98;;
43419;SDS011;29017;51.514;-0.178;2023-05-27T01:17:05;15.15;;;2.33;;
43419;SDS011;29017;51.514;-0.178;2023-05-27T01:19:34;22.65;;;2.35;;
43419;SDS011;29017;51.514;-0.178;2023-05-27T01:22:01;16.65;;;5.10;;
43419;SDS011;29017;51.514;-0.178;2023-05-27T01:24:30;21.00;;;2.15;;
43419;SDS011;29017;51.514;-0.178;2023-05-27T01:26:57;17.15;;;2.15;;
43419;SDS011;29017;51.514;-0.178;2023-05-27T01:29:28;16.73;;;2.10;;
43419;SDS011;29017;51.514;-0.178;2023-05-27T01:34:41;19.67;;;2.75;;
43419;SDS011;29017;51.514;-0.178;2023-05-27T01:37:18;16.33;;;2.42;;
43419;SDS011;29017;51.514;-0.178;2023-05-27T01:39:49;15.23;;;2.05;;
43419;SDS011;29017;51.514;-0.178;2023-05-27T01:42:17;24.80;;;2.65;;
43419;SDS011;29017;51.514;-0.178;2023-05-27T01:44:46;19.05;;;2.58;;
43419;SDS011;29017;51.514;-0.178;2023-05-27T01:47:13;21.70;;;3.08;;
43419;SDS011;29017;51.514;-0.178;2023-05-27T01:49:40;20.23;;;2.58;;
43419;SDS011;29017;51.514;-0.178;2023-05-27T01:52:07;20.33;;;4.05;;
43419;SDS011;29017;51.514;-0.178;2023-05-27T01:54:35;22.02;;;2.38;;
43419;SDS011;29017;51.514;-0.178;2023-05-27T01:57:03;22.42;;;2.30;;
43419;SDS011;29017;51.514;-0.178;2023-05-27T01:59:31;16.67;;;2.95;;
43419;SDS011;29017;51.514;-0.178;2023-05-27T02:01:58;19.75;;;2.60;;
43419;SDS011;29017;51.514;-0.178;2023-05-27T02:04:25;24.27;;;2.60;;
43419;SDS011;29017;51.514;-0.178;2023-05-27T02:06:52;16.35;;;3.03;;
43419;SDS011;29017;51.514;-0.178;2023-05-27T02:09:19;18.15;;;3.08;;
43419;SDS011;29017;51.514;-0.178;2023-05-27T02:11:47;19.08;;;2.67;;
43419;SDS011;29017;51.514;-0.178;2023-05-27T02:14:14;18.92;;;2.40;;
43419;SDS011;29017;51.514;-0.178;2023-05-27T02:16:41;21.60;;;2.42;;
43419;SDS011;29017;51.514;-0.178;2023-05-27T02:19:09;23.80;;;2.90;;
43419;SDS011;29017;51.514;-0.178;2023-05-27T02:21:36;21.15;;;2.72;;
43419;SDS011;29017;51.514;-0.178;2023-05-27T02:24:04;24.73;;;4.97;;
43419;SDS011;29017;51.514;-0.178;2023-05-27T02:26:31;16.25;;;2.13;;
43419;SDS011;29017;51.514;-0.178;2023-05-27T02:28:58;17.92;;;2.70;;
43419;SDS011;29017;51.514;-0.178;2023-05-27T02:31:25;19.88;;;2.63;;
43419;SDS011;29017;51.514;-0.178;2023-05-27T02:33:53;17.15;;;3.10;;
43419;SDS011;29017;51.514;-0.178;2023-05-27T02:36:20;18.60;;;2.03;;
43419;SDS011;29017;51.514;-0.178;2023-05-27T02:38:47;24.88;;;3.13;;
43419;SDS011;29017;51.514;-0.178;2023-05-27T02:41:14;16.13;;;2.97;;
43419;SDS011;29017;51.514;-0.178;2023-05-27T02:43:41;20.67;;;2.35;;
43419;SDS011;29017;51.514;-0.178;2023-05-27T02:46:08;15.07;;;3.70;;
43419;SDS011;29017;51.514;-0.178;2023-05-27T02:48:35;22.10;;;3.10;;
43419;SDS011;29017;51.514;-0.178;2023-05-27T02:51:03;24.98;;;3.88;;
43419;SDS011;29017;51.514;-0.178;2023-05-27T02:53:30;19.98;;;3.13;;
43419;SDS011;29017;51.514;-0.178;2023-05-27T02:55:57;17.63;;;2.60;;
43419;SDS011;29017;51.514;-0.178;2023-05-27T02:58:24;19.40;;;3.08;;
43419;SDS011;29017;51.514;-0.178;2023-05-27T03:00:51;24.85;;;4.20;;
43419;SDS011;29017;51.514;-0.178;2023-05-27T03:03:18;21.20;;;4.68;;
43419;SDS011;29017;51.514;-0.178;2023-05-27T03:05:45;24.90;;;4.13;;
43419;SDS011;29017;51.514;-0.178;2023-05-27T03:08:14;26.17;;;4.63;;
43419;SDS011;29017;51.514;-0.178;2023-05-27T03:10:41;21.85;;;3.95;;
43419;SDS011;29017;51.514;-0.178;2023-05-27T03:13:08;20.35;;;3.08;;
43419;SDS011;29017;51.514;-0.178;2023-05-27T03:15:38;19.23;;;3.47;;
43419;SDS011;29017;51.514;-0.178;2023-05-27T03:18:05;27.40;;;4.75;;
43419;SDS011;29017;51.514;-0.178;2023-05-27T03:20:33;22.02;;;4.82;;
43419;SDS011;29017;51.514;-0.178;2023-05-27T03:23:00;29.77;;;4.18;;
43419;SDS011;29017;51.514;-0.178;2023-05-27T03:25:27;27.25;;;5.15;;
43419;SDS011;29017;51.514;-0.178;2023-05-27T03:27:55;19.88;;;3.50;;
43419;SDS011;29017;51.514;-0.178;2023-05-27T03:30:22;20.60;;;3.38;;
43419;SDS011;29017;51.514;-0.178;2023-05-27T03:32:49;24.17;;;3.80;;
43419;SDS011;29017;51.514;-0.178;2023-05-27T03:35:17;22.33;;;2.90;;
43419;SDS011;29017;51.514;-0.178;2023-05-27T03:37:44;23.52;;;4.32;;
43419;SDS011;29017;51.514;-0.178;2023-05-27T03:40:12;21.25;;;3.58;;
43419;SDS011;29017;51.514;-0.178;2023-05-27T03:42:39;17.90;;;3.05;;
43419;SDS011;29017;51.514;-0.178;2023-05-27T03:45:06;17.02;;;2.90;;
43419;SDS011;29017;51.514;-0.178;2023-05-27T03:47:34;20.38;;;4.13;;
43419;SDS011;29017;51.514;-0.178;2023-05-27T03:50:02;19.60;;;2.67;;
43419;SDS011;29017;51.514;-0.178;2023-05-27T03:52:29;22.70;;;4.38;;
43419;SDS011;29017;51.514;-0.178;2023-05-27T03:54:56;19.50;;;3.28;;
43419;SDS011;29017;51.514;-0.178;2023-05-27T03:57:23;18.95;;;3.42;;
43419;SDS011;29017;51.514;-0.178;2023-05-27T03:59:50;18.42;;;3.40;;
43419;SDS011;29017;51.514;-0.178;2023-05-27T04:02:17;19.15;;;3.50;;
43419;SDS011;29017;51.514;-0.178;2023-05-27T04:04:45;21.35;;;2.88;;
43419;SDS011;29017;51.514;-0.178;2023-05-27T04:07:12;17.77;;;2.83;;
43419;SDS011;29017;51.514;-0.178;2023-05-27T04:09:39;14.60;;;2.25;;
43419;SDS011;29017;51.514;-0.178;2023-05-27T04:12:07;18.55;;;2.90;;
43419;SDS011;29017;51.514;-0.178;2023-05-27T04:14:34;17.30;;;2.75;;
43419;SDS011;29017;51.514;-0.178;2023-05-27T04:17:02;13.20;;;2.35;;
43419;SDS011;29017;51.514;-0.178;2023-05-27T04:19:29;24.95;;;3.10;;
43419;SDS011;29017;51.514;-0.178;2023-05-27T04:21:59;17.40;;;2.75;;
43419;SDS011;29017;51.514;-0.178;2023-05-27T04:24:26;23.85;;;3.10;;
43419;SDS011;29017;51.514;-0.178;2023-05-27T04:26:53;17.77;;;2.90;;
43419;SDS011;29017;51.514;-0.178;2023-05-27T04:29:20;23.75;;;3.80;;
43419;SDS011;29017;51.514;-0.178;2023-05-27T04:31:49;24.42;;;3.88;;
43419;SDS011;29017;51.514;-0.178;2023-05-27T04:34:17;21.25;;;3.35;;
43419;SDS011;29017;51.514;-0.178;2023-05-27T04:36:44;26.02;;;4.15;;
43419;SDS011;29017;51.514;-0.178;2023-05-27T04:39:16;22.88;;;3.40;;
43419;SDS011;29017;51.514;-0.178;2023-05-27T04:41:43;21.20;;;3.08;;
43419;SDS011;29017;51.514;-0.178;2023-05-27T04:44:11;17.88;;;3.25;;
43419;SDS011;29017;51.514;-0.178;2023-05-27T04:46:38;24.73;;;4.25;;
43419;SDS011;29017;51.514;-0.178;2023-05-27T04:49:05;19.20;;;3.38;;
43419;SDS011;29017;51.514;-0.178;2023-05-27T04:51:35;26.02;;;4.07;;
43419;SDS011;29017;51.514;-0.178;2023-05-27T04:54:02;21.92;;;3.58;;
43419;SDS011;29017;51.514;-0.178;2023-05-27T04:56:29;22.45;;;3.10;;
43419;SDS011;29017;51.514;-0.178;2023-05-27T04:58:56;22.48;;;3.55;;
43419;SDS011;29017;51.514;-0.178;2023-05-27T05:01:27;19.98;;;4.13;;
43419;SDS011;29017;51.514;-0.178;2023-05-27T05:03:55;17.90;;;4.05;;
43419;SDS011;29017;51.514;-0.178;2023-05-27T05:06:39;26.67;;;4.00;;
43419;SDS011;29017;51.514;-0.178;2023-05-27T05:09:06;23.25;;;4.13;;
43419;SDS011;29017;51.514;-0.178;2023-05-27T05:11:35;23.73;;;3.08;;
43419;SDS011;29017;51.514;-0.178;2023-05-27T05:14:02;19.85;;;3.47;;
43419;SDS011;29017;51.514;-0.178;2023-05-27T05:16:29;21.83;;;4.50;;
43419;SDS011;29017;51.514;-0.178;2023-05-27T05:18:57;18.27;;;3.17;;
43419;SDS011;29017;51.514;-0.178;2023-05-27T05:21:24;18.25;;;2.88;;
43419;SDS011;29017;51.514;-0.178;2023-05-27T05:23:51;18.85;;;3.13;;
43419;SDS011;29017;51.514;-0.178;2023-05-27T05:26:18;19.98;;;3.20;;
43419;SDS011;29017;51.514;-0.178;2023-05-27T05:28:45;19.65;;;3.75;;
43419;SDS011;29017;51.514;-0.178;2023-05-27T05:31:12;14.18;;;3.33;;
43419;SDS011;29017;51.514;-0.178;2023-05-27T05:33:39;19.65;;;3.45;;
43419;SDS011;29017;51.514;-0.178;2023-05-27T05:36:07;19.08;;;3.80;;
43419;SDS011;29017;51.514;-0.178;2023-05-27T05:38:35;18.88;;;2.90;;
43419;SDS011;29017;51.514;-0.178;2023-05-27T05:41:02;13.02;;;3.60;;
43419;SDS011;29017;51.514;-0.178;2023-05-27T05:43:29;21.83;;;3.17;;
43419;SDS011;29017;51.514;-0.178;2023-05-27T05:45:57;22.58;;;3.63;;
43419;SDS011;29017;51.514;-0.178;2023-05-27T05:48:24;17.23;;;3.65;;
43419;SDS011;29017;51.514;-0.178;2023-05-27T05:50:51;21.15;;;3.40;;
43419;SDS011;29017;51.514;-0.178;2023-05-27T05:53:19;14.25;;;3.17;;
43419;SDS011;29017;51.514;-0.178;2023-05-27T05:55:47;17.08;;;2.60;;
43419;SDS011;29017;51.514;-0.178;2023-05-27T05:58:14;12.52;;;2.58;;
43419;SDS011;29017;51.514;-0.178;2023-05-27T06:00:41;14.57;;;2.53;;
43419;SDS011;29017;51.514;-0.178;2023-05-27T06:03:09;22.58;;;3.03;;
43419;SDS011;29017;51.514;-0.178;2023-05-27T06:05:36;15.38;;;2.53;;
43419;SDS011;29017;51.514;-0.178;2023-05-27T06:08:03;19.02;;;2.58;;
43419;SDS011;29017;51.514;-0.178;2023-05-27T06:10:31;14.93;;;2.17;;
43419;SDS011;29017;51.514;-0.178;2023-05-27T06:12:58;19.05;;;4.28;;
43419;SDS011;29017;51.514;-0.178;2023-05-27T06:15:25;18.15;;;2.88;;
43419;SDS011;29017;51.514;-0.178;2023-05-27T06:17:53;18.55;;;2.45;;
43419;SDS011;29017;51.514;-0.178;2023-05-27T06:20:21;19.13;;;1.85;;
43419;SDS011;29017;51.514;-0.178;2023-05-27T06:22:50;18.45;;;2.58;;
43419;SDS011;29017;51.514;-0.178;2023-05-27T06:25:17;17.73;;;2.17;;
43419;SDS011;29017;51.514;-0.178;2023-05-27T06:27:45;10.35;;;2.00;;
43419;SDS011;29017;51.514;-0.178;2023-05-27T06:30:12;16.52;;;2.97;;
43419;SDS011;29017;51.514;-0.178;2023-05-27T06:32:39;15.88;;;2.03;;
43419;SDS011;29017;51.514;-0.178;2023-05-27T06:35:07;20.98;;;2.17;;
43419;SDS011;29017;51.514;-0.178;2023-05-27T06:37:34;10.80;;;1.60;;
43419;SDS011;29017;51.514;-0.178;2023-05-27T06:40:01;19.60;;;1.90;;
43419;SDS011;29017;51.514;-0.178;2023-05-27T06:42:29;13.60;;;1.85;;
43419;SDS011;29017;51.514;-0.178;2023-05-27T06:44:56;16.58;;;1.95;;
43419;SDS011;29017;51.514;-0.178;2023-05-27T06:47:23;11.13;;;1.40;;
43419;SDS011;29017;51.514;-0.178;2023-05-27T06:49:50;12.75;;;1.25;;
43419;SDS011;29017;51.514;-0.178;2023-05-27T06:52:18;18.80;;;2.40;;
43419;SDS011;29017;51.514;-0.178;2023-05-27T06:54:45;10.43;;;1.30;;
43419;SDS011;29017;51.514;-0.178;2023-05-27T06:57:13;15.32;;;2.30;;
43419;SDS011;29017;51.514;-0.178;2023-05-27T06:59:41;15.93;;;1.70;;
43419;SDS011;29017;51.514;-0.178;2023-05-27T07:02:08;15.38;;;1.63;;
43419;SDS011;29017;51.514;-0.178;2023-05-27T07:04:35;18.35;;;2.10;;
43419;SDS011;29017;51.514;-0.178;2023-05-27T07:07:03;18.55;;;2.15;;
43419;SDS011;29017;51.514;-0.178;2023-05-27T07:09:30;11.50;;;1.92;;
43419;SDS011;29017;51.514;-0.178;2023-05-27T07:11:58;14.07;;;1.98;;
43419;SDS011;29017;51.514;-0.178;2023-05-27T07:14:26;11.50;;;1.77;;
43419;SDS011;29017;51.514;-0.178;2023-05-27T07:16:54;14.45;;;1.90;;
43419;SDS011;29017;51.514;-0.178;2023-05-27T07:19:22;13.45;;;1.98;;
43419;SDS011;29017;51.514;-0.178;2023-05-27T07:21:49;13.70;;;1.92;;
43419;SDS011;29017;51.514;-0.178;2023-05-27T07:24:17;15.38;;;2.20;;
43419;SDS011;29017;51.514;-0.178;2023-05-27T07:26:44;14.20;;;1.90;;
43419;SDS011;29017;51.514;-0.178;2023-05-27T07:29:11;16.42;;;2.15;;
43419;SDS011;29017;51.514;-0.178;2023-05-27T07:31:38;12.27;;;1.50;;
43419;SDS011;29017;51.514;-0.178;2023-05-27T07:34:06;12.35;;;1.80;;
43419;SDS011;29017;51.514;-0.178;2023-05-27T07:36:33;13.23;;;1.80;;
43419;SDS011;29017;51.514;-0.178;2023-05-27T07:39:01;16.95;;;2.60;;
43419;SDS011;29017;51.514;-0.178;2023-05-27T07:41:28;13.85;;;1.88;;
43419;SDS011;29017;51.514;-0.178;2023-05-27T07:43:56;13.20;;;3.03;;
43419;SDS011;29017;51.514;-0.178;2023-05-27T07:46:23;19.67;;;2.33;;
43419;SDS011;29017;51.514;-0.178;2023-05-27T07:48:50;11.98;;;2.25;;
43419;SDS011;29017;51.514;-0.178;2023-05-27T07:51:17;8.82;;;1.85;;
43419;SDS011;29017;51.514;-0.178;2023-05-27T07:53:44;11.10;;;2.13;;
43419;SDS011;29017;51.514;-0.178;2023-05-27T07:56:12;12.63;;;1.98;;
43419;SDS011;29017;51.514;-0.178;2023-05-27T07:58:39;16.30;;;2.45;;
43419;SDS011;29017;51.514;-0.178;2023-05-27T08:01:06;11.65;;;2.00;;
43419;SDS011;29017;51.514;-0.178;2023-05-27T08:03:33;13.77;;;1.80;;
43419;SDS011;29017;51.514;-0.178;2023-05-27T08:06:00;17.20;;;2.80;;
43419;SDS011;29017;51.514;-0.178;2023-05-27T08:08:27;16.77;;;2.20;;
43419;SDS011;29017;51.514;-0.178;2023-05-27T08:10:54;12.30;;;2.55;;
43419;SDS011;29017;51.514;-0.178;2023-05-27T08:13:22;15.40;;;2.50;;
43419;SDS011;29017;51.514;-0.178;2023-05-27T08:15:49;15.52;;;2.42;;
43419;SDS011;29017;51.514;-0.178;2023-05-27T08:18:16;13.32;;;2.33;;
43419;SDS011;29017;51.514;-0.178;2023-05-27T08:20:43;15.57;;;2.15;;
43419;SDS011;29017;51.514;-0.178;2023-05-27T08:23:11;11.18;;;2.10;;
43419;SDS011;29017;51.514;-0.178;2023-05-27T08:25:38;18.55;;;2.47;;
43419;SDS011;29017;51.514;-0.178;2023-05-27T08:28:05;16.10;;;2.25;;
43419;SDS011;29017;51.514;-0.178;2023-05-27T08:30:32;15.00;;;2.50;;
43419;SDS011;29017;51.514;-0.178;2023-05-27T08:32:59;10.32;;;2.17;;
43419;SDS011;29017;51.514;-0.178;2023-05-27T08:35:27;8.50;;;2.35;;
43419;SDS011;29017;51.514;-0.178;2023-05-27T08:37:54;16.63;;;2.75;;
43419;SDS011;29017;51.514;-0.178;2023-05-27T08:40:21;11.20;;;2.47;;
43419;SDS011;29017;51.514;-0.178;2023-05-27T08:42:51;16.50;;;2.30;;
43419;SDS011;29017;51.514;-0.178;2023-05-27T08:45:18;18.38;;;3.42;;
43419;SDS011;29017;51.514;-0.178;2023-05-27T08:47:46;17.20;;;3.05;;
43419;SDS011;29017;51.514;-0.178;2023-05-27T08:50:15;14.48;;;2.70;;
43419;SDS011;29017;51.514;-0.178;2023-05-27T08:52:47;15.85;;;2.63;;
43419;SDS011;29017;51.514;-0.178;2023-05-27T08:55:20;13.68;;;2.67;;
43419;SDS011;29017;51.514;-0.178;2023-05-27T08:57:50;20.02;;;3.17;;
43419;SDS011;29017;51.514;-0.178;2023-05-27T09:02:48;9.73;;;2.35;;
43419;SDS011;29017;51.514;-0.178;2023-05-27T09:05:16;15.40;;;3.03;;
43419;SDS011;29017;51.514;-0.178;2023-05-27T09:07:44;19.20;;;2.83;;
43419;SDS011;29017;51.514;-0.178;2023-05-27T09:10:11;17.73;;;2.60;;
43419;SDS011;29017;51.514;-0.178;2023-05-27T09:12:41;13.05;;;2.92;;
43419;SDS011;29017;51.514;-0.178;2023-05-27T09:15:09;10.75;;;2.85;;
43419;SDS011;29017;51.514;-0.178;2023-05-27T09:17:39;14.73;;;2.75;;
43419;SDS011;29017;51.514;-0.178;2023-05-27T09:20:08;14.90;;;3.42;;
43419;SDS011;29017;51.514;-0.178;2023-05-27T09:22:37;21.88;;;2.80;;
43419;SDS011;29017;51.514;-0.178;2023-05-27T09:25:06;13.63;;;2.63;;
43419;SDS011;29017;51.514;-0.178;2023-05-27T09:27:33;12.75;;;2.78;;
43419;SDS011;29017;51.514;-0.178;2023-05-27T09:30:06;15.88;;;3.10;;
43419;SDS011;29017;51.514;-0.178;2023-05-27T09:32:36;13.60;;;2.20;;
43419;SDS011;29017;51.514;-0.178;2023-05-27T09:35:05;15.77;;;2.83;;
43419;SDS011;29017;51.514;-0.178;2023-05-27T09:37:34;17.75;;;3.30;;
43419;SDS011;29017;51.514;-0.178;2023-05-27T09:40:06;20.85;;;3.03;;
43419;SDS011;29017;51.514;-0.178;2023-05-27T09:42:42;13.68;;;2.75;;
43419;SDS011;29017;51.514;-0.178;2023-05-27T09:45:11;13.25;;;3.20;;
43419;SDS011;29017;51.514;-0.178;2023-05-27T09:47:41;18.45;;;2.88;;
43419;SDS011;29017;51.514;-0.178;2023-05-27T09:50:13;12.85;;;2.53;;
43419;SDS011;29017;51.514;-0.178;2023-05-27T09:52:40;17.83;;;2.58;;
43419;SDS011;29017;51.514;-0.178;2023-05-27T09:55:30;10.65;;;2.05;;
43419;SDS011;29017;51.514;-0.178;2023-05-27T09:57:57;10.45;;;2.22;;
43419;SDS011;29017;51.514;-0.178;2023-05-27T10:00:25;12.60;;;2.47;;
43419;SDS011;29017;51.514;-0.178;2023-05-27T10:02:53;8.05;;;1.80;;
43419;SDS011;29017;51.514;-0.178;2023-05-27T10:05:24;16.88;;;2.25;;
43419;SDS011;29017;51.514;-0.178;2023-05-27T10:07:54;10.98;;;2.00;;
43419;SDS011;29017;51.514;-0.178;2023-05-27T10:10:24;11.38;;;2.70;;
43419;SDS011;29017;51.514;-0.178;2023-05-27T10:12:51;14.93;;;2.10;;
43419;SDS011;29017;51.514;-0.178;2023-05-27T10:15:24;11.35;;;2.28;;
43419;SDS011;29017;51.514;-0.178;2023-05-27T10:17:54;14.35;;;2.65;;
43419;SDS011;29017;51.514;-0.178;2023-05-27T10:20:24;10.65;;;1.98;;
43419;SDS011;29017;51.514;-0.178;2023-05-27T10:22:54;12.43;;;1.95;;
43419;SDS011;29017;51.514;-0.178;2023-05-27T10:25:21;11.23;;;2.25;;
43419;SDS011;29017;51.514;-0.178;2023-05-27T10:27:49;15.60;;;2.30;;
43419;SDS011;29017;51.514;-0.178;2023-05-27T10:30:16;10.43;;;2.08;;
43419;SDS011;29017;51.514;-0.178;2023-05-27T10:32:47;14.93;;;1.85;;
43419;SDS011;29017;51.514;-0.178;2023-05-27T10:37:43;7.65;;;1.73;;
43419;SDS011;29017;51.514;-0.178;2023-05-27T10:40:12;11.05;;;1.98;;
43419;SDS011;29017;51.514;-0.178;2023-05-27T10:45:31;12.20;;;2.20;;
43419;SDS011;29017;51.514;-0.178;2023-05-27T10:48:00;13.30;;;2.25;;
43419;SDS011;29017;51.514;-0.178;2023-05-27T10:50:31;13.95;;;2.40;;
43419;SDS011;29017;51.514;-0.178;2023-05-27T10:53:00;11.63;;;2.17;;
43419;SDS011;29017;51.514;-0.178;2023-05-27T10:55:28;12.70;;;1.88;;
43419;SDS011;29017;51.514;-0.178;2023-05-27T10:57:57;12.43;;;2.00;;
43419;SDS011;29017;51.514;-0.178;2023-05-27T11:00:26;8.15;;;1.88;;
43419;SDS011;29017;51.514;-0.178;2023-05-27T11:02:54;9.07;;;1.45;;
43419;SDS011;29017;51.514;-0.178;2023-05-27T11:05:27;11.75;;;2.05;;
43419;SDS011;29017;51.514;-0.178;2023-05-27T11:07:59;10.18;;;1.90;;
43419;SDS011;29017;51.514;-0.178;2023-05-27T11:10:27;9.52;;;1.70;;
43419;SDS011;29017;51.514;-0.178;2023-05-27T11:12:54;8.13;;;1.75;;
43419;SDS011;29017;51.514;-0.178;2023-05-27T11:15:21;9.38;;;1.63;;
43419;SDS011;29017;51.514;-0.178;2023-05-27T11:17:49;10.75;;;2.38;;
43419;SDS011;29017;51.514;-0.178;2023-05-27T11:20:16;9.27;;;1.92;;
43419;SDS011;29017;51.514;-0.178;2023-05-27T11:22:49;9.80;;;1.70;;
43419;SDS011;29017;51.514;-0.178;2023-05-27T11:25:17;11.55;;;2.50;;
43419;SDS011;29017;51.514;-0.178;2023-05-27T11:27:44;13.13;;;2.55;;
43419;SDS011;29017;51.514;-0.178;2023-05-27T11:30:11;8.88;;;1.83;;
43419;SDS011;29017;51.514;-0.178;2023-05-27T11:32:40;8.68;;;1.88;;
43419;SDS011;29017;51.514;-0.178;2023-05-27T11:35:14;7.35;;;1.50;;
43419;SDS011;29017;51.514;-0.178;2023-05-27T11:37:46;9.73;;;2.00;;
43419;SDS011;29017;51.514;-0.178;2023-05-27T11:40:16;7.88;;;1.45;;
43419;SDS011;29017;51.514;-0.178;2023-05-27T11:42:44;6.63;;;2.00;;
43419;SDS011;29017;51.514;-0.178;2023-05-27T11:45:15;9.88;;;1.33;;
43419;SDS011;29017;51.514;-0.178;2023-05-27T11:50:18;11.15;;;2.33;;
43419;SDS011;29017;51.514;-0.178;2023-05-27T11:52:50;9.68;;;1.90;;
43419;SDS011;29017;51.514;-0.178;2023-05-27T11:55:18;11.60;;;2.10;;
43419;SDS011;29017;51.514;-0.178;2023-05-27T11:57:45;10.00;;;1.75;;
43419;SDS011;29017;51.514;-0.178;2023-05-27T12:00:13;8.88;;;1.20;;
43419;SDS011;29017;51.514;-0.178;2023-05-27T12:02:41;12.88;;;1.67;;
43419;SDS011;29017;51.514;-0.178;2023-05-27T12:05:09;7.28;;;1.58;;
43419;SDS011;29017;51.514;-0.178;2023-05-27T12:07:51;8.70;;;1.55;;
43419;SDS011;29017;51.514;-0.178;2023-05-27T12:10:18;10.35;;;1.83;;
43419;SDS011;29017;51.514;-0.178;2023-05-27T12:12:45;9.82;;;1.90;;
43419;SDS011;29017;51.514;-0.178;2023-05-27T12:15:12;8.15;;;1.50;;
43419;SDS011;29017;51.514;-0.178;2023-05-27T12:17:39;6.63;;;1.90;;
43419;SDS011;29017;51.514;-0.178;2023-05-27T12:20:06;8.80;;;1.55;;
43419;SDS011;29017;51.514;-0.178;2023-05-27T12:22:35;11.68;;;3.53;;
43419;SDS011;29017;51.514;-0.178;2023-05-27T12:25:02;7.47;;;1.73;;
43419;SDS011;29017;51.514;-0.178;2023-05-27T12:27:32;9.18;;;1.67;;
43419;SDS011;29017;51.514;-0.178;2023-05-27T12:29:59;11.73;;;2.20;;
43419;SDS011;29017;51.514;-0.178;2023-05-27T12:32:27;8.43;;;1.65;;
43419;SDS011;29017;51.514;-0.178;2023-05-27T12:34:54;10.18;;;1.65;;
43419;SDS011;29017;51.514;-0.178;2023-05-27T12:37:21;10.02;;;1.83;;
43419;SDS011;29017;51.514;-0.178;2023-05-27T12:39:51;8.77;;;2.00;;
43419;SDS011;29017;51.514;-0.178;2023-05-27T12:42:18;9.45;;;1.88;;
43419;SDS011;29017;51.514;-0.178;2023-05-27T12:44:46;9.20;;;2.03;;
43419;SDS011;29017;51.514;-0.178;2023-05-27T12:47:13;7.43;;;1.60;;
43419;SDS011;29017;51.514;-0.178;2023-05-27T12:49:40;10.18;;;2.28;;
43419;SDS011;29017;51.514;-0.178;2023-05-27T12:52:09;10.18;;;2.80;;
43419;SDS011;29017;51.514;-0.178;2023-05-27T12:54:36;10.77;;;1.90;;
43419;SDS011;29017;51.514;-0.178;2023-05-27T12:57:04;11.85;;;2.40;;
43419;SDS011;29017;51.514;-0.178;2023-05-27T12:59:32;8.77;;;2.42;;
43419;SDS011;29017;51.514;-0.178;2023-05-27T13:02:00;10.15;;;1.85;;
43419;SDS011;29017;51.514;-0.178;2023-05-27T13:04:27;9.13;;;2.05;;
43419;SDS011;29017;51.514;-0.178;2023-05-27T13:06:54;12.32;;;2.50;;
43419;SDS011;29017;51.514;-0.178;2023-05-27T13:09:22;11.02;;;3.28;;
43419;SDS011;29017;51.514;-0.178;2023-05-27T13:11:50;8.50;;;2.42;;
43419;SDS011;29017;51.514;-0.178;2023-05-27T13:14:17;7.22;;;2.20;;
43419;SDS011;29017;51.514;-0.178;2023-05-27T13:16:44;9.73;;;3.03;;
43419;SDS011;29017;51.514;-0.178;2023-05-27T13:19:14;12.10;;;2.63;;
43419;SDS011;29017;51.514;-0.178;2023-05-27T13:21:42;9.07;;;2.42;;
43419;SDS011;29017;51.514;-0.178;2023-05-27T13:24:09;9.30;;;2.70;;
43419;SDS011;29017;51.514;-0.178;2023-05-27T13:26:36;9.50;;;1.95;;
43419;SDS011;29017;51.514;-0.178;2023-05-27T13:29:03;10.32;;;2.13;;
43419;SDS011;29017;51.514;-0.178;2023-05-27T13:31:31;7.97;;;2.05;;
43419;SDS011;29017;51.514;-0.178;2023-05-27T13:33:58;9.82;;;2.88;;
43419;SDS011;29017;51.514;-0.178;2023-05-27T13:36:29;9.95;;;2.70;;
43419;SDS011;29017;51.514;-0.178;2023-05-27T13:38:56;10.40;;;2.97;;
43419;SDS011;29017;51.514;-0.178;2023-05-27T13:41:23;10.27;;;2.58;;
43419;SDS011;29017;51.514;-0.178;2023-05-27T13:43:50;10.57;;;2.85;;
43419;SDS011;29017;51.514;-0.178;2023-05-27T13:46:18;10.07;;;2.38;;
43419;SDS011;29017;51.514;-0.178;2023-05-27T13:48:45;7.45;;;2.20;;
43419;SDS011;29017;51.514;-0.178;2023-05-27T13:51:12;10.85;;;2.55;;
43419;SDS011;29017;51.514;-0.178;2023-05-27T13:53:39;7.30;;;2.50;;
43419;SDS011;29017;51.514;-0.178;2023-05-27T13:56:06;8.77;;;2.40;;
43419;SDS011;29017;51.514;-0.178;2023-05-27T13:58:34;4.72;;;1.98;;
43419;SDS011;29017;51.514;-0.178;2023-05-27T14:01:03;11.93;;;3.05;;
43419;SDS011;29017;51.514;-0.178;2023-05-27T14:03:30;8.85;;;2.72;;
43419;SDS011;29017;51.514;-0.178;2023-05-27T14:05:57;6.88;;;2.20;;
43419;SDS011;29017;51.514;-0.178;2023-05-27T14:08:24;10.52;;;3.42;;
43419;SDS011;29017;51.514;-0.178;2023-05-27T14:10:52;12.38;;;3.47;;
43419;SDS011;29017;51.514;-0.178;2023-05-27T14:13:19;12.32;;;2.72;;
43419;SDS011;29017;51.514;-0.178;2023-05-27T14:15:46;6.60;;;2.22;;
43419;SDS011;29017;51.514;-0.178;2023-05-27T14:18:14;9.60;;;2.50;;
43419;SDS011;29017;51.514;-0.178;2023-05-27T14:20:41;9.70;;;2.38;;
43419;SDS011;29017;51.514;-0.178;2023-05-27T14:23:09;6.75;;;2.45;;
43419;SDS011;29017;51.514;-0.178;2023-05-27T14:25:38;5.03;;;2.08;;
43419;SDS011;29017;51.514;-0.178;2023-05-27T14:28:06;8.55;;;1.92;;
43419;SDS011;29017;51.514;-0.178;2023-05-27T14:30:33;8.23;;;1.63;;
43419;SDS011;29017;51.514;-0.178;2023-05-27T14:33:04;8.00;;;1.90;;
43419;SDS011;29017;51.514;-0.178;2023-05-27T14:35:35;11.13;;;2.72;;
43419;SDS011;29017;51.514;-0.178;2023-05-27T14:38:03;6.45;;;2.42;;
43419;SDS011;29017;51.514;-0.178;2023-05-27T14:40:30;10.98;;;2.67;;
43419;SDS011;29017;51.514;-0.178;2023-05-27T14:42:58;5.90;;;1.92;;
43419;SDS011;29017;51.514;-0.178;2023-05-27T14:45:26;7.20;;;1.70;;
43419;SDS011;29017;51.514;-0.178;2023-05-27T14:47:53;7.55;;;1.85;;